createdAt,value
2018-01-20T00:02:11.426Z,25.57
2018-01-20T00:04:39.811Z,25.27
2018-01-20T00:07:08.090Z,25.33
2018-01-20T00:09:54.312Z,25.67
2018-01-20T00:12:22.922Z,25.23
2018-01-20T00:14:51.963Z,25.57
2018-01-20T00:17:20.761Z,23.67
2018-01-20T00:19:50.116Z,25.27
2018-01-20T00:22:23.638Z,24.70
2018-01-20T00:24:57.395Z,24.60
2018-01-20T00:27:25.705Z,24.00
2018-01-20T00:29:54.752Z,24.40
2018-01-20T00:32:23.031Z,24.07
2018-01-20T00:34:51.411Z,23.17
2018-01-20T00:37:19.698Z,23.60
2018-01-20T00:39:48.293Z,23.20
2018-01-20T00:42:16.646Z,24.40
2018-01-20T00:44:45.309Z,24.13
2018-01-20T00:47:13.586Z,22.33
2018-01-20T00:49:41.906Z,22.50
2018-01-20T00:52:10.552Z,24.37
2018-01-20T00:54:38.848Z,20.87
2018-01-20T00:57:07.426Z,21.70
2018-01-20T00:59:36.019Z,22.07
2018-01-20T01:02:04.319Z,24.13
2018-01-20T01:04:32.679Z,22.30
2018-01-20T01:07:01.082Z,21.87
2018-01-20T01:09:29.379Z,22.87
2018-01-20T01:11:59.667Z,22.83
2018-01-20T01:14:28.538Z,22.40
2018-01-20T01:16:56.918Z,20.97
2018-01-20T01:19:26.673Z,22.57
2018-01-20T01:21:55.265Z,22.43
2018-01-20T01:24:23.542Z,21.60
2018-01-20T01:26:51.856Z,19.63
2018-01-20T01:29:20.251Z,21.57
2018-01-20T01:31:48.531Z,21.97
2018-01-20T01:34:17.280Z,21.40
2018-01-20T01:36:46.427Z,20.40
2018-01-20T01:39:14.703Z,21.00
2018-01-20T01:41:43.010Z,19.50
2018-01-20T01:44:11.287Z,18.90
2018-01-20T01:46:39.564Z,19.43
2018-01-20T01:49:07.867Z,21.57
2018-01-20T01:51:37.835Z,19.30
2018-01-20T01:54:06.107Z,19.97
2018-01-20T01:56:34.717Z,20.87
2018-01-20T01:59:02.992Z,19.00
2018-01-20T02:01:31.931Z,20.33
2018-01-20T02:04:00.227Z,19.10
2018-01-20T02:06:28.507Z,19.30
2018-01-20T02:08:56.807Z,20.27
2018-01-20T02:11:25.908Z,18.37
2018-01-20T02:13:54.272Z,19.43
2018-01-20T02:16:22.571Z,19.70
2018-01-20T02:18:50.855Z,19.07
2018-01-20T02:21:19.157Z,18.60
2018-01-20T02:23:47.691Z,19.30
2018-01-20T02:26:16.492Z,19.40
2018-01-20T02:28:44.779Z,18.53
2018-01-20T02:31:13.347Z,17.83
2018-01-20T02:33:41.677Z,18.30
2018-01-20T02:36:09.918Z,18.50
2018-01-20T02:38:38.233Z,18.93
2018-01-20T02:41:08.975Z,18.17
2018-01-20T02:43:38.112Z,17.40
2018-01-20T02:46:06.405Z,18.40
2018-01-20T02:48:34.683Z,19.60
2018-01-20T02:51:02.984Z,17.40
2018-01-20T02:53:31.799Z,17.60
2018-01-20T02:56:00.836Z,19.37
2018-01-20T02:58:29.215Z,17.50
2018-01-20T03:00:57.508Z,17.70
2018-01-20T03:03:25.831Z,19.43
2018-01-20T03:05:54.875Z,16.43
2018-01-20T03:08:23.279Z,17.80
2018-01-20T03:10:51.787Z,18.27
2018-01-20T03:13:20.851Z,18.10
2018-01-20T03:15:49.128Z,16.43
2018-01-20T03:18:17.678Z,17.90
2018-01-20T03:20:45.976Z,17.90
2018-01-20T03:23:14.279Z,19.30
2018-01-20T03:25:42.567Z,17.37
2018-01-20T03:28:11.646Z,15.73
2018-01-20T03:30:40.006Z,17.67
2018-01-20T03:33:08.368Z,16.63
2018-01-20T03:35:36.747Z,16.60
2018-01-20T03:38:05.018Z,14.37
2018-01-20T03:40:33.302Z,17.67
2018-01-20T03:43:01.591Z,15.70
2018-01-20T03:45:29.868Z,16.20
2018-01-20T03:47:58.157Z,18.17
2018-01-20T03:50:26.980Z,15.43
2018-01-20T03:52:57.576Z,16.63
2018-01-20T03:55:26.516Z,16.03
2018-01-20T03:57:55.559Z,15.80
2018-01-20T04:00:24.160Z,15.90
2018-01-20T04:02:53.128Z,16.43
2018-01-20T04:05:21.920Z,16.87
2018-01-20T04:07:50.774Z,16.20
2018-01-20T04:10:19.807Z,15.50
2018-01-20T04:12:48.072Z,15.20
2018-01-20T04:15:16.355Z,14.83
2018-01-20T04:17:45.059Z,15.67
2018-01-20T04:20:13.339Z,14.63
2018-01-20T04:22:41.627Z,15.70
2018-01-20T04:25:10.030Z,15.07
2018-01-20T04:27:38.296Z,14.80
2018-01-20T04:30:07.415Z,15.83
2018-01-20T04:32:36.688Z,14.43
2018-01-20T04:35:04.972Z,15.17
2018-01-20T04:37:33.852Z,14.90
2018-01-20T04:40:02.200Z,14.77
2018-01-20T04:42:30.491Z,15.73
2018-01-20T04:44:58.787Z,14.60
2018-01-20T04:47:27.094Z,14.30
2018-01-20T04:49:56.151Z,14.63
2018-01-20T04:52:24.480Z,12.57
2018-01-20T04:54:53.529Z,13.70
2018-01-20T04:57:21.816Z,14.77
2018-01-20T04:59:50.504Z,13.80
2018-01-20T05:02:19.371Z,13.87
2018-01-20T05:04:47.667Z,14.37
2018-01-20T05:07:16.352Z,13.73
2018-01-20T05:09:45.133Z,13.73
2018-01-20T05:12:13.515Z,14.60
2018-01-20T05:14:41.822Z,13.73
2018-01-20T05:17:10.832Z,14.20
2018-01-20T05:19:39.896Z,14.23
2018-01-20T05:22:08.189Z,13.67
2018-01-20T05:24:36.499Z,14.43
2018-01-20T05:27:04.776Z,12.73
2018-01-20T05:29:33.121Z,13.77
2018-01-20T05:32:01.667Z,13.70
2018-01-20T05:34:31.239Z,14.07
2018-01-20T05:37:00.386Z,13.60
2018-01-20T05:39:28.690Z,12.80
2018-01-20T05:41:57.388Z,12.50
2018-01-20T05:44:25.987Z,13.33
2018-01-20T05:46:55.056Z,13.07
2018-01-20T05:49:24.274Z,13.27
2018-01-20T05:51:53.327Z,12.73
2018-01-20T05:54:21.914Z,11.77
2018-01-20T05:56:50.216Z,12.73
2018-01-20T05:59:18.486Z,12.07
2018-01-20T06:01:46.807Z,12.53
2018-01-20T06:04:15.923Z,11.97
2018-01-20T06:06:45.071Z,13.40
2018-01-20T06:09:13.389Z,13.20
2018-01-20T06:11:41.667Z,12.23
2018-01-20T06:14:09.972Z,12.20
2018-01-20T06:16:39.159Z,13.80
2018-01-20T06:19:08.895Z,12.93
2018-01-20T06:21:37.181Z,12.67
2018-01-20T06:24:05.491Z,13.27
2018-01-20T06:26:34.563Z,11.00
2018-01-20T06:29:03.302Z,12.80
2018-01-20T06:31:31.596Z,12.70
2018-01-20T06:33:59.889Z,12.93
2018-01-20T06:36:29.464Z,11.93
2018-01-20T06:38:58.628Z,11.60
2018-01-20T06:41:26.927Z,11.23
2018-01-20T06:43:56.282Z,11.80
2018-01-20T06:46:24.848Z,10.90
2018-01-20T06:48:53.143Z,11.23
2018-01-20T06:51:21.609Z,11.23
2018-01-20T06:53:50.994Z,11.47
2018-01-20T06:56:19.321Z,12.40
2018-01-20T06:58:48.469Z,12.20
2018-01-20T07:01:16.869Z,10.80
2018-01-20T07:03:45.215Z,10.30
2018-01-20T07:06:14.274Z,10.60
2018-01-20T07:08:42.551Z,11.20
2018-01-20T07:11:10.875Z,11.40
2018-01-20T07:13:39.157Z,11.70
2018-01-20T07:16:07.967Z,11.03
2018-01-20T07:18:36.288Z,10.47
2018-01-20T07:21:05.947Z,11.10
2018-01-20T07:23:34.228Z,10.00
2018-01-20T07:26:02.811Z,10.83
2018-01-20T07:28:31.116Z,9.90
2018-01-20T07:30:59.392Z,10.67
2018-01-20T07:33:27.688Z,10.43
2018-01-20T07:35:56.508Z,9.80
2018-01-20T07:38:24.787Z,10.20
2018-01-20T07:40:53.304Z,9.73
2018-01-20T07:43:21.648Z,9.40
2018-01-20T07:45:51.106Z,10.10
2018-01-20T07:48:19.399Z,9.80
2018-01-20T07:50:47.949Z,10.53
2018-01-20T07:53:16.639Z,10.80
2018-01-20T07:55:45.334Z,9.77
2018-01-20T07:58:13.675Z,10.50
2018-01-20T08:00:42.128Z,9.77
2018-01-20T08:03:10.404Z,9.53
2018-01-20T08:05:39.467Z,9.10
2018-01-20T08:08:07.828Z,9.27
2018-01-20T08:10:36.359Z,8.97
2018-01-20T08:13:05.348Z,8.97
2018-01-20T08:15:34.469Z,8.33
2018-01-20T08:18:04.336Z,9.00
2018-01-20T08:20:32.612Z,8.93
2018-01-20T08:23:00.983Z,9.50
2018-01-20T08:25:29.517Z,10.53
2018-01-20T08:27:59.756Z,9.60
2018-01-20T08:30:28.695Z,10.37
2018-01-20T08:32:57.277Z,9.57
2018-01-20T08:35:26.295Z,10.00
2018-01-20T08:37:54.601Z,8.77
2018-01-20T08:40:23.683Z,8.13
2018-01-20T08:42:52.749Z,9.60
2018-01-20T08:45:21.332Z,8.80
2018-01-20T08:47:49.713Z,8.30
2018-01-20T08:50:18.028Z,8.20
2018-01-20T08:52:47.073Z,10.00
2018-01-20T08:55:15.451Z,8.67
2018-01-20T08:57:43.780Z,8.67
2018-01-20T09:00:12.878Z,8.07
2018-01-20T09:02:42.699Z,7.67
2018-01-20T09:05:11.873Z,9.63
2018-01-20T09:07:40.195Z,7.87
2018-01-20T09:10:08.487Z,9.50
2018-01-20T09:12:36.848Z,8.23
2018-01-20T09:15:05.560Z,7.73
2018-01-20T09:17:33.855Z,8.03
2018-01-20T09:20:02.958Z,7.67
2018-01-20T09:22:31.252Z,22.03
2018-01-20T09:25:02.080Z,22.77
2018-01-20T09:27:30.412Z,23.20
2018-01-20T09:30:00.355Z,23.60
2018-01-20T09:32:30.584Z,23.53
2018-01-20T09:35:00.803Z,25.23
2018-01-20T09:37:30.734Z,24.87
2018-01-20T09:40:00.699Z,24.40
2018-01-20T09:42:30.663Z,22.53
2018-01-20T09:45:00.635Z,25.20
2018-01-20T09:47:30.569Z,22.93
2018-01-20T09:50:00.528Z,18.40
2018-01-20T09:52:30.582Z,16.97
2018-01-20T09:55:00.661Z,15.73
2018-01-20T09:57:30.915Z,13.90
2018-01-20T10:00:00.884Z,13.43
2018-01-20T10:02:30.817Z,12.70
2018-01-20T10:05:00.812Z,13.73
2018-01-20T10:07:30.753Z,14.10
2018-01-20T10:10:00.727Z,12.50
2018-01-20T10:12:30.657Z,12.77
2018-01-20T10:15:00.865Z,12.57
2018-01-20T10:17:31.220Z,10.90
2018-01-20T10:20:01.252Z,11.40
2018-01-20T10:22:32.151Z,9.87
2018-01-20T10:25:02.101Z,11.13
2018-01-20T10:27:32.115Z,10.40
2018-01-20T10:30:02.412Z,9.63
2018-01-20T10:32:32.336Z,10.30
2018-01-20T10:35:02.331Z,8.23
2018-01-20T10:37:33.046Z,9.77
2018-01-20T10:40:02.983Z,8.80
2018-01-20T10:42:32.956Z,9.37
2018-01-20T10:45:04.673Z,8.90
2018-01-20T10:47:35.291Z,8.90
2018-01-20T10:50:05.507Z,9.00
2018-01-20T10:52:36.055Z,9.27
2018-01-20T10:55:06.000Z,9.07
2018-01-20T10:57:37.469Z,7.93
2018-01-20T11:00:07.418Z,8.27
2018-01-20T11:02:37.486Z,9.13
2018-01-20T11:05:07.478Z,9.50
2018-01-20T11:07:37.422Z,9.40
2018-01-20T11:10:08.668Z,9.37
2018-01-20T11:12:38.610Z,7.60
2018-01-20T11:15:08.563Z,8.30
2018-01-20T11:17:38.528Z,8.27
2018-01-20T11:20:08.946Z,8.97
2018-01-20T11:22:38.867Z,8.33
2018-01-20T11:25:08.820Z,8.77
2018-01-20T11:27:39.367Z,8.63
2018-01-20T11:30:09.460Z,7.67
2018-01-20T11:32:39.452Z,8.07
2018-01-20T11:35:09.467Z,8.20
2018-01-20T11:37:40.644Z,8.20
2018-01-20T11:40:10.564Z,8.90
2018-01-20T11:42:41.615Z,7.63
2018-01-20T11:45:12.414Z,8.70
2018-01-20T11:47:42.616Z,8.00
2018-01-20T11:50:12.545Z,8.10
2018-01-20T11:52:42.819Z,7.97
2018-01-20T11:55:14.086Z,7.27
2018-01-20T11:57:44.057Z,8.20
2018-01-20T12:00:13.978Z,8.40
2018-01-20T12:02:44.598Z,7.73
2018-01-20T12:05:14.559Z,8.60
2018-01-20T12:07:44.762Z,8.17
2018-01-20T12:10:14.735Z,7.90
2018-01-20T12:12:44.945Z,7.40
2018-01-20T12:15:16.149Z,8.40
2018-01-20T12:17:46.117Z,7.57
2018-01-20T12:20:16.046Z,7.40
2018-01-20T12:22:46.050Z,7.63
2018-01-20T12:25:15.980Z,7.83
2018-01-20T12:27:45.926Z,7.17
2018-01-20T12:30:17.605Z,7.50
2018-01-20T12:32:48.970Z,7.13
2018-01-20T12:35:19.713Z,7.97
2018-01-20T12:37:49.642Z,7.23
2018-01-20T12:40:19.588Z,7.50
2018-01-20T12:42:49.534Z,8.23
2018-01-20T12:45:19.902Z,6.87
2018-01-20T12:47:49.891Z,7.30
2018-01-20T12:50:19.807Z,8.00
2018-01-20T12:52:49.772Z,7.80
2018-01-20T12:55:19.691Z,7.33
2018-01-20T12:57:49.659Z,7.70
2018-01-20T13:00:19.602Z,8.67
2018-01-20T13:02:49.551Z,7.77
2018-01-20T13:05:19.783Z,8.10
2018-01-20T13:07:50.551Z,7.60
2018-01-20T13:10:20.710Z,7.10
2018-01-20T13:12:50.638Z,8.20
2018-01-20T13:15:20.627Z,7.73
2018-01-20T13:17:50.566Z,7.13
2018-01-20T13:20:20.538Z,7.20
2018-01-20T13:22:50.808Z,7.63
2018-01-20T13:25:20.767Z,7.27
2018-01-20T13:27:51.512Z,7.17
2018-01-20T13:30:21.511Z,7.10
2018-01-20T13:32:51.429Z,6.27
2018-01-20T13:35:21.500Z,7.10
2018-01-20T13:37:51.407Z,7.53
2018-01-20T13:40:21.570Z,6.97
2018-01-20T13:42:51.798Z,6.80
2018-01-20T13:45:22.402Z,6.80
2018-01-20T13:47:52.524Z,7.73
2018-01-20T13:50:23.378Z,7.20
2018-01-20T13:52:53.310Z,5.97
2018-01-20T13:55:23.278Z,7.00
2018-01-20T13:57:53.350Z,7.10
2018-01-20T14:00:23.343Z,6.73
2018-01-20T14:02:53.288Z,6.37
2018-01-20T14:05:23.279Z,8.03
2018-01-20T14:07:53.309Z,5.60
2018-01-20T14:10:23.656Z,6.67
2018-01-20T14:12:54.208Z,7.07
2018-01-20T14:15:24.133Z,7.03
2018-01-20T14:17:54.090Z,6.70
2018-01-20T14:20:24.019Z,6.90
2018-01-20T14:22:54.011Z,7.17
2018-01-20T14:25:23.972Z,7.00
2018-01-20T14:27:54.275Z,5.73
2018-01-20T14:30:24.235Z,6.07
2018-01-20T14:32:54.167Z,6.37
2018-01-20T14:35:24.203Z,6.37
2018-01-20T14:37:54.918Z,6.13
2018-01-20T14:40:25.489Z,6.53
2018-01-20T14:42:55.414Z,6.40
2018-01-20T14:45:26.100Z,6.77
2018-01-20T14:47:56.046Z,7.17
2018-01-20T14:50:25.982Z,6.03
2018-01-20T14:52:56.456Z,6.10
2018-01-20T14:55:26.921Z,6.83
2018-01-20T14:57:57.065Z,7.00
2018-01-20T15:00:27.907Z,6.07
2018-01-20T15:02:57.822Z,5.80
2018-01-20T15:05:27.799Z,6.03
2018-01-20T15:07:57.725Z,6.70
2018-01-20T15:10:27.687Z,6.40
2018-01-20T15:12:58.488Z,6.87
2018-01-20T15:15:28.439Z,6.70
2018-01-20T15:17:58.372Z,6.03
2018-01-20T15:20:28.771Z,7.03
2018-01-20T15:22:58.709Z,6.10
2018-01-20T15:25:28.668Z,5.90
2018-01-20T15:27:59.959Z,5.70
2018-01-20T15:30:30.873Z,6.17
2018-01-20T15:33:01.252Z,5.20
2018-01-20T15:35:31.188Z,5.53
2018-01-20T15:38:01.219Z,5.00
2018-01-20T15:40:32.245Z,5.27
2018-01-20T15:43:03.859Z,5.93
2018-01-20T15:45:34.257Z,6.03
2018-01-20T15:48:04.211Z,5.80
2018-01-20T15:50:35.392Z,5.50
2018-01-20T15:53:06.244Z,6.00
2018-01-20T15:55:36.236Z,5.93
2018-01-20T15:58:06.162Z,5.90
2018-01-20T16:00:36.119Z,6.57
2018-01-20T16:03:06.055Z,6.13
2018-01-20T16:05:36.132Z,5.10
2018-01-20T16:08:06.198Z,5.97
2018-01-20T16:10:36.246Z,4.40
2018-01-20T16:13:06.179Z,5.37
2018-01-20T16:15:36.144Z,5.20
2018-01-20T16:18:06.680Z,5.40
2018-01-20T16:20:36.643Z,4.63
2018-01-20T16:23:06.979Z,5.20
2018-01-20T16:25:37.507Z,5.10
2018-01-20T16:28:07.483Z,5.23
2018-01-20T16:30:37.755Z,5.47
2018-01-20T16:33:07.769Z,5.43
2018-01-20T16:35:37.677Z,5.40
2018-01-20T16:38:07.638Z,5.80
2018-01-20T16:40:37.581Z,5.40
2018-01-20T16:43:07.817Z,5.23
2018-01-20T16:45:38.575Z,4.63
2018-01-20T16:48:08.595Z,5.23
2018-01-20T16:50:38.561Z,5.10
2018-01-20T16:53:08.666Z,5.30
2018-01-20T16:55:39.080Z,5.27
2018-01-20T16:58:09.026Z,4.63
2018-01-20T17:00:39.523Z,4.77
2018-01-20T17:03:09.446Z,4.60
2018-01-20T17:05:40.378Z,5.10
2018-01-20T17:08:10.486Z,4.70
2018-01-20T17:10:40.699Z,5.27
2018-01-20T17:13:10.729Z,5.93
2018-01-20T17:15:40.753Z,5.70
2018-01-20T17:18:10.712Z,5.13
2018-01-20T17:20:40.651Z,4.83
2018-01-20T17:23:10.627Z,5.00
2018-01-20T17:25:40.567Z,4.83
2018-01-20T17:28:11.250Z,4.80
2018-01-20T17:30:41.177Z,5.13
2018-01-20T17:33:12.064Z,4.80
2018-01-20T17:35:41.990Z,4.37
2018-01-20T17:38:12.155Z,4.00
2018-01-20T17:40:42.587Z,5.10
2018-01-20T17:43:12.891Z,4.40
2018-01-20T17:45:42.810Z,3.83
2018-01-20T17:48:12.771Z,4.60
2018-01-20T17:50:43.455Z,4.73
2018-01-20T17:53:13.416Z,4.63
2018-01-20T17:55:43.348Z,4.47
2018-01-20T17:58:13.283Z,4.70
2018-01-20T18:00:43.354Z,4.17
2018-01-20T18:03:13.555Z,4.50
2018-01-20T18:05:43.471Z,4.83
2018-01-20T18:08:13.505Z,4.80
2018-01-20T18:10:43.796Z,4.60
2018-01-20T18:13:13.733Z,4.80
2018-01-20T18:15:43.740Z,4.00
2018-01-20T18:18:14.095Z,4.60
2018-01-20T18:20:44.047Z,5.17
2018-01-20T18:23:14.158Z,5.23
2018-01-20T18:25:44.412Z,3.97
2018-01-20T18:28:14.456Z,4.30
2018-01-20T18:30:44.601Z,3.67
2018-01-20T18:33:14.533Z,5.07
2018-01-20T18:35:44.518Z,4.30
2018-01-20T18:38:14.475Z,4.60
2018-01-20T18:40:44.397Z,4.70
2018-01-20T18:43:14.408Z,4.00
2018-01-20T18:45:44.358Z,4.50
2018-01-20T18:48:14.293Z,4.47
2018-01-20T18:50:44.211Z,4.60
2018-01-20T18:53:14.231Z,3.83
2018-01-20T18:55:44.199Z,4.87
2018-01-20T18:58:14.956Z,4.20
2018-01-20T19:00:44.893Z,4.40
2018-01-20T19:03:15.123Z,3.90
2018-01-20T19:05:45.127Z,4.50
2018-01-20T19:08:15.048Z,4.53
2018-01-20T19:10:44.988Z,4.47
2018-01-20T19:13:14.971Z,4.47
2018-01-20T19:15:44.883Z,4.00
2018-01-20T19:18:14.937Z,4.50
2018-01-20T19:20:44.863Z,4.30
2018-01-20T19:23:14.855Z,4.70
2018-01-20T19:25:44.768Z,4.50
2018-01-20T19:28:14.805Z,4.10
2018-01-20T19:30:45.340Z,3.90
2018-01-20T19:33:15.286Z,4.20
2018-01-20T19:35:46.047Z,4.30
2018-01-20T19:38:15.984Z,4.33
2018-01-20T19:40:45.930Z,4.57
2018-01-20T19:43:16.538Z,3.93
2018-01-20T19:45:46.483Z,3.50
2018-01-20T19:48:16.488Z,3.90
2018-01-20T19:50:47.327Z,3.87
2018-01-20T19:53:18.083Z,3.77
2018-01-20T19:55:48.788Z,3.67
2018-01-20T19:58:18.711Z,4.10
2018-01-20T20:00:48.735Z,4.77
2018-01-20T20:03:18.749Z,3.93
2018-01-20T20:05:49.070Z,3.97
2018-01-20T20:08:18.991Z,3.53
2018-01-20T20:10:49.022Z,4.13
2018-01-20T20:13:19.464Z,4.17
2018-01-20T20:15:50.268Z,3.70
2018-01-20T20:18:20.311Z,3.93
2018-01-20T20:20:50.824Z,4.13
2018-01-20T20:23:21.499Z,4.77
2018-01-20T20:25:51.566Z,3.77
2018-01-20T20:28:21.686Z,3.50
2018-01-20T20:30:52.299Z,3.63
2018-01-20T20:33:22.355Z,3.73
2018-01-20T20:35:52.291Z,3.70
2018-01-20T20:38:22.215Z,3.70
2018-01-20T20:40:52.749Z,3.50
2018-01-20T20:43:23.297Z,3.50
2018-01-20T20:45:54.369Z,3.90
2018-01-20T20:48:24.336Z,3.93
2018-01-20T20:50:55.346Z,3.23
2018-01-20T20:53:25.277Z,3.67
2018-01-20T20:55:55.575Z,3.83
2018-01-20T20:58:25.508Z,3.17
2018-01-20T21:00:55.446Z,3.50
2018-01-20T21:03:25.375Z,3.10
2018-01-20T21:05:55.357Z,3.77
2018-01-20T21:08:25.316Z,3.47
2018-01-20T21:10:55.516Z,3.90
2018-01-20T21:13:26.199Z,3.47
2018-01-20T21:15:56.127Z,3.53
2018-01-20T21:18:26.173Z,3.20
2018-01-20T21:20:56.275Z,3.80
2018-01-20T21:23:27.011Z,4.00
2018-01-20T21:25:56.956Z,4.07
2018-01-20T21:28:26.887Z,3.30
2018-01-20T21:30:57.892Z,3.90
2018-01-20T21:33:28.732Z,3.00
2018-01-20T21:35:58.744Z,3.53
2018-01-20T21:38:28.669Z,3.47
2018-01-20T21:40:59.317Z,3.50
2018-01-20T21:43:29.284Z,3.40
2018-01-20T21:45:59.219Z,2.90
2018-01-20T21:48:29.178Z,3.20
2018-01-20T21:50:59.122Z,3.10
2018-01-20T21:53:29.063Z,3.67
2018-01-20T21:55:59.105Z,2.87
2018-01-20T21:58:29.034Z,3.60
2018-01-20T22:00:59.503Z,3.40
2018-01-20T22:03:29.483Z,3.87
2018-01-20T22:06:00.795Z,2.97
2018-01-20T22:08:30.816Z,3.27
2018-01-20T22:11:00.735Z,3.57
2018-01-20T22:13:30.670Z,3.40
2018-01-20T22:16:01.379Z,3.30
2018-01-20T22:18:31.327Z,2.97
2018-01-20T22:21:01.276Z,3.40
2018-01-20T22:23:31.570Z,3.57
2018-01-20T22:26:01.570Z,3.50
2018-01-20T22:28:31.504Z,3.07
2018-01-20T22:31:01.487Z,3.30
2018-01-20T22:33:31.714Z,3.53
2018-01-20T22:36:02.066Z,2.97
2018-01-20T22:38:32.536Z,3.50
2018-01-20T22:41:03.335Z,3.20
2018-01-20T22:43:34.159Z,3.10
2018-01-20T22:46:04.107Z,3.57
2018-01-20T22:48:34.183Z,3.33
2018-01-20T22:51:04.355Z,3.17
2018-01-20T22:53:34.844Z,3.40
2018-01-20T22:56:04.769Z,3.23
2018-01-20T22:58:35.007Z,3.10
2018-01-20T23:01:10.366Z,2.93
2018-01-20T23:03:41.251Z,3.07
2018-01-20T23:06:11.285Z,3.43
2018-01-20T23:08:41.219Z,3.37
2018-01-20T23:11:11.468Z,3.50
2018-01-20T23:13:41.739Z,3.30
2018-01-20T23:16:11.747Z,3.60
2018-01-20T23:18:41.673Z,3.00
2018-01-20T23:21:11.779Z,2.93
2018-01-20T23:23:41.811Z,3.33
2018-01-20T23:26:12.056Z,3.10
2018-01-20T23:28:42.932Z,2.60
2018-01-20T23:31:12.854Z,2.90
2018-01-20T23:33:42.831Z,3.03
2018-01-20T23:36:12.946Z,4.10
2018-01-20T23:38:42.855Z,2.67
2018-01-20T23:41:12.806Z,3.03
2018-01-20T23:43:42.800Z,3.10
2018-01-20T23:46:12.727Z,2.90
2018-01-20T23:48:43.012Z,3.43
2018-01-20T23:51:12.943Z,2.90
2018-01-20T23:53:42.957Z,3.50
2018-01-20T23:56:12.891Z,2.53
2018-01-20T23:58:43.547Z,2.60
